sensor_id;sensor_type;location;lat;lon;timestamp;pressure;altitude;pressure_sealevel;temperature;humidity
26699;BME280;14313;50.892;13.756;2022-10-31T04:01:16;98218.59;;;14.49;70.07
26699;BME280;14313;50.892;13.756;2022-10-31T04:03:44;98214.94;;;14.42;70.84
26699;BME280;14313;50.892;13.756;2022-10-31T04:06:13;98215.06;;;14.33;70.22
26699;BME280;14313;50.892;13.756;2022-10-31T04:08:49;98214.75;;;14.36;70.04
26699;BME280;14313;50.892;13.756;2022-10-31T04:11:20;98212.72;;;14.22;70.07
26699;BME280;14313;50.892;13.756;2022-10-31T04:14:08;98216.38;;;14.29;70.22
26699;BME280;14313;50.892;13.756;2022-10-31T04:16:38;98216.03;;;14.32;69.96
26699;BME280;14313;50.892;13.756;2022-10-31T04:19:04;98218.88;;;14.30;70.43
26699;BME280;14313;50.892;13.756;2022-10-31T04:21:30;98214.06;;;14.26;70.26
26699;BME280;14313;50.892;13.756;2022-10-31T04:23:56;98209.22;;;14.21;70.05
26699;BME280;14313;50.892;13.756;2022-10-31T04:26:24;98216.19;;;14.22;70.17
26699;BME280;14313;50.892;13.756;2022-10-31T04:28:50;98219.53;;;14.24;69.77
26699;BME280;14313;50.892;13.756;2022-10-31T04:31:16;98219.19;;;14.19;69.84
26699;BME280;14313;50.892;13.756;2022-10-31T04:33:43;98215.22;;;14.23;70.17
26699;BME280;14313;50.892;13.756;2022-10-31T04:36:09;98208.72;;;14.09;70.71
26699;BME280;14313;50.892;13.756;2022-10-31T04:38:34;98208.72;;;14.09;70.98
26699;BME280;14313;50.892;13.756;2022-10-31T04:41:03;98213.19;;;14.09;70.43
26699;BME280;14313;50.892;13.756;2022-10-31T04:43:50;98221.31;;;14.07;70.14
26699;BME280;14313;50.892;13.756;2022-10-31T04:46:16;98222.94;;;14.00;70.66
26699;BME280;14313;50.892;13.756;2022-10-31T04:48:41;98224.78;;;14.00;70.16
26699;BME280;14313;50.892;13.756;2022-10-31T04:51:07;98224.59;;;14.01;70.33
26699;BME280;14313;50.892;13.756;2022-10-31T04:53:32;98224.53;;;13.85;70.63
26699;BME280;14313;50.892;13.756;2022-10-31T04:56:20;98233.03;;;13.89;70.17
26699;BME280;14313;50.892;13.756;2022-10-31T04:58:49;98233.34;;;13.86;69.63
26699;BME280;14313;50.892;13.756;2022-10-31T05:01:14;98230.53;;;13.79;70.38
26699;BME280;14313;50.892;13.756;2022-10-31T05:03:40;98228.66;;;13.72;70.80
26699;BME280;14313;50.892;13.756;2022-10-31T05:06:06;98225.88;;;13.81;70.16
26699;BME280;14313;50.892;13.756;2022-10-31T05:08:31;98230.13;;;13.66;71.88
26699;BME280;14313;50.892;13.756;2022-10-31T05:11:04;98233.47;;;13.76;71.36
26699;BME280;14313;50.892;13.756;2022-10-31T05:13:30;98227.19;;;13.77;70.48
26699;BME280;14313;50.892;13.756;2022-10-31T05:16:22;98239.09;;;13.73;70.26
26699;BME280;14313;50.892;13.756;2022-10-31T05:19:10;98235.13;;;13.69;70.36
26699;BME280;14313;50.892;13.756;2022-10-31T05:21:53;98230.81;;;13.68;70.68
26699;BME280;14313;50.892;13.756;2022-10-31T05:24:19;98235.25;;;13.68;70.90
26699;BME280;14313;50.892;13.756;2022-10-31T05:26:47;98225.28;;;13.61;71.08
26699;BME280;14313;50.892;13.756;2022-10-31T05:29:13;98227.47;;;13.66;70.46
26699;BME280;14313;50.892;13.756;2022-10-31T05:31:38;98226.97;;;13.62;70.97
26699;BME280;14313;50.892;13.756;2022-10-31T05:34:06;98227.09;;;13.53;70.89
26699;BME280;14313;50.892;13.756;2022-10-31T05:36:43;98235.53;;;13.56;70.90
26699;BME280;14313;50.892;13.756;2022-10-31T05:39:14;98227.25;;;13.51;71.00
26699;BME280;14313;50.892;13.756;2022-10-31T05:41:42;98231.72;;;13.51;70.84
26699;BME280;14313;50.892;13.756;2022-10-31T05:44:13;98227.22;;;13.43;70.97
26699;BME280;14313;50.892;13.756;2022-10-31T05:46:57;98235.09;;;13.35;71.16
26699;BME280;14313;50.892;13.756;2022-10-31T05:49:41;98237.63;;;13.45;70.80
26699;BME280;14313;50.892;13.756;2022-10-31T05:52:35;98236.00;;;13.44;70.94
26699;BME280;14313;50.892;13.756;2022-10-31T05:55:09;98239.81;;;13.49;71.39
26699;BME280;14313;50.892;13.756;2022-10-31T05:57:35;98245.63;;;13.53;73.26
26699;BME280;14313;50.892;13.756;2022-10-31T06:00:00;98245.16;;;13.57;71.52
26699;BME280;14313;50.892;13.756;2022-10-31T06:02:26;98249.84;;;13.63;71.32
26699;BME280;14313;50.892;13.756;2022-10-31T06:05:15;98240.50;;;13.59;70.77
26699;BME280;14313;50.892;13.756;2022-10-31T06:07:41;98248.47;;;13.59;71.04
26699;BME280;14313;50.892;13.756;2022-10-31T06:10:08;98250.13;;;13.60;70.71
26699;BME280;14313;50.892;13.756;2022-10-31T06:12:35;98243.69;;;13.63;70.50
26699;BME280;14313;50.892;13.756;2022-10-31T06:15:13;98246.16;;;13.64;70.46
26699;BME280;14313;50.892;13.756;2022-10-31T06:17:40;98251.94;;;13.60;70.01
26699;BME280;14313;50.892;13.756;2022-10-31T06:20:23;98254.44;;;13.61;70.27
26699;BME280;14313;50.892;13.756;2022-10-31T06:23:01;98257.09;;;13.61;70.29
26699;BME280;14313;50.892;13.756;2022-10-31T06:25:27;98261.44;;;13.71;69.88
26699;BME280;14313;50.892;13.756;2022-10-31T06:27:53;98263.59;;;13.67;70.00
26699;BME280;14313;50.892;13.756;2022-10-31T06:30:21;98266.09;;;13.69;70.49
26699;BME280;14313;50.892;13.756;2022-10-31T06:32:47;98269.97;;;13.82;70.47
26699;BME280;14313;50.892;13.756;2022-10-31T06:35:12;98274.75;;;13.79;70.53
26699;BME280;14313;50.892;13.756;2022-10-31T06:37:39;98278.75;;;13.83;70.89
26699;BME280;14313;50.892;13.756;2022-10-31T06:40:37;98280.63;;;13.98;70.35
26699;BME280;14313;50.892;13.756;2022-10-31T06:43:34;98283.84;;;14.10;70.33
26699;BME280;14313;50.892;13.756;2022-10-31T06:46:19;98289.78;;;14.12;70.26
26699;BME280;14313;50.892;13.756;2022-10-31T06:49:01;98284.47;;;14.12;70.40
26699;BME280;14313;50.892;13.756;2022-10-31T06:51:41;98290.63;;;14.13;71.00
26699;BME280;14313;50.892;13.756;2022-10-31T06:54:06;98291.66;;;14.28;71.16
26699;BME280;14313;50.892;13.756;2022-10-31T06:56:32;98296.06;;;14.45;70.86
26699;BME280;14313;50.892;13.756;2022-10-31T06:58:58;98294.91;;;14.56;70.67
26699;BME280;14313;50.892;13.756;2022-10-31T07:01:44;98285.63;;;14.68;70.82
26699;BME280;14313;50.892;13.756;2022-10-31T07:04:10;98295.63;;;14.82;71.04
26699;BME280;14313;50.892;13.756;2022-10-31T07:06:36;98292.47;;;14.86;70.98
26699;BME280;14313;50.892;13.756;2022-10-31T07:09:01;98294.44;;;15.01;71.35
26699;BME280;14313;50.892;13.756;2022-10-31T07:11:26;98304.56;;;15.38;70.72
26699;BME280;14313;50.892;13.756;2022-10-31T07:13:54;98297.75;;;15.59;70.01
26699;BME280;14313;50.892;13.756;2022-10-31T07:16:19;98302.38;;;15.57;69.31
26699;BME280;14313;50.892;13.756;2022-10-31T07:18:45;98302.88;;;15.61;69.69
26699;BME280;14313;50.892;13.756;2022-10-31T07:21:13;98300.22;;;15.69;69.22
26699;BME280;14313;50.892;13.756;2022-10-31T07:23:39;98308.31;;;15.75;69.12
26699;BME280;14313;50.892;13.756;2022-10-31T07:26:23;98312.44;;;15.86;68.97
26699;BME280;14313;50.892;13.756;2022-10-31T07:28:48;98306.59;;;15.91;69.13
26699;BME280;14313;50.892;13.756;2022-10-31T07:31:16;98310.09;;;15.99;69.84
26699;BME280;14313;50.892;13.756;2022-10-31T07:33:41;98312.00;;;16.13;69.30
26699;BME280;14313;50.892;13.756;2022-10-31T07:36:27;98314.75;;;16.36;68.28
26699;BME280;14313;50.892;13.756;2022-10-31T07:38:56;98311.13;;;16.52;68.04
26699;BME280;14313;50.892;13.756;2022-10-31T07:41:23;98311.38;;;16.73;67.97
26699;BME280;14313;50.892;13.756;2022-10-31T07:43:48;98306.59;;;16.91;67.37
26699;BME280;14313;50.892;13.756;2022-10-31T07:46:16;98306.47;;;17.08;67.82
26699;BME280;14313;50.892;13.756;2022-10-31T07:48:42;98315.03;;;17.18;67.75
26699;BME280;14313;50.892;13.756;2022-10-31T07:51:25;98312.88;;;17.36;67.48
26699;BME280;14313;50.892;13.756;2022-10-31T07:54:03;98312.66;;;17.60;67.19
26699;BME280;14313;50.892;13.756;2022-10-31T07:56:30;98311.31;;;17.79;66.37
26699;BME280;14313;50.892;13.756;2022-10-31T07:58:56;98304.84;;;17.88;66.06
26699;BME280;14313;50.892;13.756;2022-10-31T08:01:21;98315.34;;;18.04;66.04
26699;BME280;14313;50.892;13.756;2022-10-31T08:04:03;98311.91;;;18.25;65.56
26699;BME280;14313;50.892;13.756;2022-10-31T08:06:47;98310.88;;;18.41;65.35
26699;BME280;14313;50.892;13.756;2022-10-31T08:09:40;98315.66;;;18.60;65.14
26699;BME280;14313;50.892;13.756;2022-10-31T08:12:16;98310.53;;;19.01;65.18
26699;BME280;14313;50.892;13.756;2022-10-31T08:14:42;98317.38;;;19.52;63.92
26699;BME280;14313;50.892;13.756;2022-10-31T08:17:07;98318.09;;;20.02;62.84
26699;BME280;14313;50.892;13.756;2022-10-31T08:19:42;98313.84;;;20.68;60.98
26699;BME280;14313;50.892;13.756;2022-10-31T08:22:10;98312.75;;;21.17;60.11
26699;BME280;14313;50.892;13.756;2022-10-31T08:24:36;98311.28;;;21.67;59.48
26699;BME280;14313;50.892;13.756;2022-10-31T08:27:01;98313.91;;;22.13;57.97
26699;BME280;14313;50.892;13.756;2022-10-31T08:29:27;98319.06;;;22.66;56.79
26699;BME280;14313;50.892;13.756;2022-10-31T08:31:52;98310.34;;;23.08;54.73
26699;BME280;14313;50.892;13.756;2022-10-31T08:34:36;98310.56;;;23.81;49.25
26699;BME280;14313;50.892;13.756;2022-10-31T08:37:20;98316.13;;;24.59;47.43
26699;BME280;14313;50.892;13.756;2022-10-31T08:39:48;98313.41;;;24.77;47.31
26699;BME280;14313;50.892;13.756;2022-10-31T08:42:13;98316.00;;;24.84;46.58
26699;BME280;14313;50.892;13.756;2022-10-31T08:44:39;98308.59;;;24.49;47.26
26699;BME280;14313;50.892;13.756;2022-10-31T08:47:04;98306.72;;;24.80;46.87
26699;BME280;14313;50.892;13.756;2022-10-31T08:49:32;98314.03;;;25.21;46.07
26699;BME280;14313;50.892;13.756;2022-10-31T08:51:57;98308.06;;;25.30;46.31
26699;BME280;14313;50.892;13.756;2022-10-31T08:54:27;98304.66;;;25.35;45.25
26699;BME280;14313;50.892;13.756;2022-10-31T08:56:55;98310.22;;;25.52;45.17
26699;BME280;14313;50.892;13.756;2022-10-31T08:59:46;98303.22;;;25.74;44.27
26699;BME280;14313;50.892;13.756;2022-10-31T09:02:41;98307.53;;;25.86;45.34
26699;BME280;14313;50.892;13.756;2022-10-31T09:05:07;98308.97;;;26.52;42.85
26699;BME280;14313;50.892;13.756;2022-10-31T09:07:33;98309.78;;;26.53;42.75
26699;BME280;14313;50.892;13.756;2022-10-31T09:09:58;98300.44;;;26.32;43.60
26699;BME280;14313;50.892;13.756;2022-10-31T09:12:24;98303.06;;;26.04;43.97
26699;BME280;14313;50.892;13.756;2022-10-31T09:14:56;98312.16;;;26.49;43.49
26699;BME280;14313;50.892;13.756;2022-10-31T09:17:29;98306.50;;;26.91;43.01
26699;BME280;14313;50.892;13.756;2022-10-31T09:20:19;98308.78;;;27.77;40.86
26699;BME280;14313;50.892;13.756;2022-10-31T09:22:44;98295.19;;;26.65;42.41
26699;BME280;14313;50.892;13.756;2022-10-31T09:25:11;98310.59;;;27.22;42.19
26699;BME280;14313;50.892;13.756;2022-10-31T09:27:38;98308.53;;;27.29;41.57
26699;BME280;14313;50.892;13.756;2022-10-31T09:30:05;98319.91;;;26.57;42.98
26699;BME280;14313;50.892;13.756;2022-10-31T09:32:31;98312.38;;;27.99;40.83
26699;BME280;14313;50.892;13.756;2022-10-31T09:34:56;98314.50;;;28.79;40.00
26699;BME280;14313;50.892;13.756;2022-10-31T09:37:22;98308.13;;;29.44;39.37
26699;BME280;14313;50.892;13.756;2022-10-31T09:39:48;98312.88;;;29.05;38.66
26699;BME280;14313;50.892;13.756;2022-10-31T09:45:31;98301.94;;;29.27;38.53
26699;BME280;14313;50.892;13.756;2022-10-31T09:51:17;98301.00;;;30.17;36.70
26699;BME280;14313;50.892;13.756;2022-10-31T09:54:11;98295.47;;;30.59;36.31
26699;BME280;14313;50.892;13.756;2022-10-31T09:56:37;98297.34;;;30.48;37.57
26699;BME280;14313;50.892;13.756;2022-10-31T09:59:16;98302.97;;;31.09;36.26
26699;BME280;14313;50.892;13.756;2022-10-31T10:04:35;98298.91;;;31.27;35.61
26699;BME280;14313;50.892;13.756;2022-10-31T10:13:57;98292.38;;;31.43;35.59
26699;BME280;14313;50.892;13.756;2022-10-31T10:17:24;98292.34;;;31.94;34.58
26699;BME280;14313;50.892;13.756;2022-10-31T10:24:52;98289.66;;;31.23;35.84
26699;BME280;14313;50.892;13.756;2022-10-31T10:27:52;98274.13;;;31.74;34.41
26699;BME280;14313;50.892;13.756;2022-10-31T10:30:20;98280.41;;;31.29;34.94
26699;BME280;14313;50.892;13.756;2022-10-31T10:33:10;98284.16;;;31.99;35.36
26699;BME280;14313;50.892;13.756;2022-10-31T10:35:43;98275.97;;;31.99;34.62
26699;BME280;14313;50.892;13.756;2022-10-31T10:38:23;98275.03;;;32.34;34.62
26699;BME280;14313;50.892;13.756;2022-10-31T10:40:52;98274.28;;;32.82;34.62
26699;BME280;14313;50.892;13.756;2022-10-31T10:43:36;98274.38;;;32.67;34.54
26699;BME280;14313;50.892;13.756;2022-10-31T10:54:41;98254.47;;;33.00;33.39
26699;BME280;14313;50.892;13.756;2022-10-31T10:57:36;98252.34;;;33.31;33.90
26699;BME280;14313;50.892;13.756;2022-10-31T11:00:17;98246.31;;;33.63;34.75
26699;BME280;14313;50.892;13.756;2022-10-31T11:02:42;98250.44;;;32.93;34.66
26699;BME280;14313;50.892;13.756;2022-10-31T11:05:15;98238.72;;;33.26;35.08
26699;BME280;14313;50.892;13.756;2022-10-31T11:07:43;98244.34;;;33.40;34.43
26699;BME280;14313;50.892;13.756;2022-10-31T11:10:13;98248.06;;;32.81;34.63
26699;BME280;14313;50.892;13.756;2022-10-31T11:12:39;98245.38;;;33.10;35.18
26699;BME280;14313;50.892;13.756;2022-10-31T11:15:21;98252.13;;;32.84;35.13
26699;BME280;14313;50.892;13.756;2022-10-31T11:17:51;98244.13;;;32.97;34.73
26699;BME280;14313;50.892;13.756;2022-10-31T11:22:44;98250.41;;;32.98;34.21
26699;BME280;14313;50.892;13.756;2022-10-31T11:27:44;98235.56;;;34.86;32.00
26699;BME280;14313;50.892;13.756;2022-10-31T11:30:12;98234.16;;;33.79;33.82
26699;BME280;14313;50.892;13.756;2022-10-31T11:32:46;98229.88;;;32.67;34.67
26699;BME280;14313;50.892;13.756;2022-10-31T11:35:16;98236.22;;;32.47;36.04
26699;BME280;14313;50.892;13.756;2022-10-31T11:37:44;98226.56;;;32.15;36.67
26699;BME280;14313;50.892;13.756;2022-10-31T11:40:19;98218.16;;;31.82;37.34
26699;BME280;14313;50.892;13.756;2022-10-31T11:42:46;98217.09;;;32.52;35.48
26699;BME280;14313;50.892;13.756;2022-10-31T11:47:50;98221.94;;;32.06;36.42
26699;BME280;14313;50.892;13.756;2022-10-31T11:50:24;98214.88;;;32.54;36.25
26699;BME280;14313;50.892;13.756;2022-10-31T11:52:51;98212.03;;;32.30;34.92
26699;BME280;14313;50.892;13.756;2022-10-31T11:55:37;98209.78;;;32.86;35.35
26699;BME280;14313;50.892;13.756;2022-10-31T11:58:03;98202.91;;;33.57;34.69
26699;BME280;14313;50.892;13.756;2022-10-31T12:00:32;98202.91;;;33.57;34.26
26699;BME280;14313;50.892;13.756;2022-10-31T12:03:14;98191.00;;;33.42;34.33
26699;BME280;14313;50.892;13.756;2022-10-31T12:05:42;98198.47;;;33.61;34.06
26699;BME280;14313;50.892;13.756;2022-10-31T12:08:11;98187.09;;;34.25;33.53
26699;BME280;14313;50.892;13.756;2022-10-31T12:10:57;98184.72;;;33.71;34.28
26699;BME280;14313;50.892;13.756;2022-10-31T12:13:34;98185.63;;;33.04;35.27
26699;BME280;14313;50.892;13.756;2022-10-31T12:16:34;98173.03;;;33.89;34.18
26699;BME280;14313;50.892;13.756;2022-10-31T12:24:45;98182.22;;;34.41;33.46
26699;BME280;14313;50.892;13.756;2022-10-31T12:30:11;98181.56;;;34.67;33.02
26699;BME280;14313;50.892;13.756;2022-10-31T12:35:32;98166.44;;;34.33;33.41
26699;BME280;14313;50.892;13.756;2022-10-31T12:38:10;98170.63;;;35.00;32.99
26699;BME280;14313;50.892;13.756;2022-10-31T12:41:05;98169.25;;;34.28;34.15
26699;BME280;14313;50.892;13.756;2022-10-31T12:46:02;98157.72;;;34.07;34.04
26699;BME280;14313;50.892;13.756;2022-10-31T12:59:36;98150.00;;;32.41;36.39
26699;BME280;14313;50.892;13.756;2022-10-31T13:05:03;98134.25;;;29.12;41.62
26699;BME280;14313;50.892;13.756;2022-10-31T13:07:47;98132.75;;;28.36;43.28
26699;BME280;14313;50.892;13.756;2022-10-31T13:10:19;98133.31;;;27.89;44.05
26699;BME280;14313;50.892;13.756;2022-10-31T13:12:49;98140.19;;;27.53;44.93
26699;BME280;14313;50.892;13.756;2022-10-31T13:15:27;98136.34;;;27.49;46.55
26699;BME280;14313;50.892;13.756;2022-10-31T13:18:00;98128.91;;;27.83;45.81
26699;BME280;14313;50.892;13.756;2022-10-31T13:20:47;98126.13;;;29.17;42.16
26699;BME280;14313;50.892;13.756;2022-10-31T13:23:34;98125.56;;;30.35;40.55
26699;BME280;14313;50.892;13.756;2022-10-31T13:26:06;98123.16;;;31.19;38.65
26699;BME280;14313;50.892;13.756;2022-10-31T13:28:38;98121.97;;;32.25;36.96
26699;BME280;14313;50.892;13.756;2022-10-31T13:31:08;98115.06;;;33.39;36.00
26699;BME280;14313;50.892;13.756;2022-10-31T13:33:47;98116.53;;;34.17;34.81
26699;BME280;14313;50.892;13.756;2022-10-31T13:38:54;98114.63;;;32.93;36.00
26699;BME280;14313;50.892;13.756;2022-10-31T13:44:14;98105.78;;;33.35;35.83
26699;BME280;14313;50.892;13.756;2022-10-31T13:46:42;98110.44;;;33.59;35.88
26699;BME280;14313;50.892;13.756;2022-10-31T13:51:52;98105.56;;;33.79;35.37
26699;BME280;14313;50.892;13.756;2022-10-31T13:54:32;98104.03;;;33.16;35.58
26699;BME280;14313;50.892;13.756;2022-10-31T13:56:58;98099.16;;;33.41;35.62
26699;BME280;14313;50.892;13.756;2022-10-31T13:59:27;98102.31;;;33.77;35.13
26699;BME280;14313;50.892;13.756;2022-10-31T14:01:58;98103.31;;;34.05;35.46
26699;BME280;14313;50.892;13.756;2022-10-31T14:04:44;98090.69;;;34.47;33.66
26699;BME280;14313;50.892;13.756;2022-10-31T14:07:16;98092.63;;;33.61;34.98
26699;BME280;14313;50.892;13.756;2022-10-31T14:12:31;98089.13;;;32.40;36.72
26699;BME280;14313;50.892;13.756;2022-10-31T14:15:25;98091.78;;;32.01;37.34
26699;BME280;14313;50.892;13.756;2022-10-31T14:17:58;98091.06;;;31.81;38.19
26699;BME280;14313;50.892;13.756;2022-10-31T14:20:33;98083.84;;;31.41;38.26
26699;BME280;14313;50.892;13.756;2022-10-31T14:25:50;98086.44;;;29.63;41.40
26699;BME280;14313;50.892;13.756;2022-10-31T14:28:22;98092.03;;;29.00;42.83
26699;BME280;14313;50.892;13.756;2022-10-31T14:30:56;98090.63;;;29.29;41.60
26699;BME280;14313;50.892;13.756;2022-10-31T14:33:25;98089.09;;;29.48;41.37
26699;BME280;14313;50.892;13.756;2022-10-31T14:52:13;98067.28;;;25.45;50.21
26699;BME280;14313;50.892;13.756;2022-10-31T14:54:42;98063.25;;;25.08;51.53
26699;BME280;14313;50.892;13.756;2022-10-31T14:57:29;98060.28;;;24.62;52.90
26699;BME280;14313;50.892;13.756;2022-10-31T15:00:02;98062.38;;;24.26;53.90
26699;BME280;14313;50.892;13.756;2022-10-31T15:02:56;98067.47;;;23.86;54.80
26699;BME280;14313;50.892;13.756;2022-10-31T15:05:26;98067.38;;;23.44;55.29
26699;BME280;14313;50.892;13.756;2022-10-31T15:07:54;98066.78;;;23.06;55.87
26699;BME280;14313;50.892;13.756;2022-10-31T15:10:27;98070.00;;;22.96;56.33
26699;BME280;14313;50.892;13.756;2022-10-31T15:12:55;98068.63;;;22.62;56.67
26699;BME280;14313;50.892;13.756;2022-10-31T15:15:24;98064.88;;;22.14;57.59
26699;BME280;14313;50.892;13.756;2022-10-31T15:18:00;98063.75;;;21.96;58.05
26699;BME280;14313;50.892;13.756;2022-10-31T15:20:30;98058.28;;;21.72;58.80
26699;BME280;14313;50.892;13.756;2022-10-31T15:22:59;98061.06;;;21.58;59.25
26699;BME280;14313;50.892;13.756;2022-10-31T15:25:28;98057.78;;;21.50;59.71
26699;BME280;14313;50.892;13.756;2022-10-31T15:27:56;98056.84;;;21.24;59.65
26699;BME280;14313;50.892;13.756;2022-10-31T15:30:24;98052.34;;;21.05;60.26
26699;BME280;14313;50.892;13.756;2022-10-31T15:32:50;98044.56;;;20.84;60.90
26699;BME280;14313;50.892;13.756;2022-10-31T15:35:23;98041.47;;;20.74;60.74
26699;BME280;14313;50.892;13.756;2022-10-31T15:37:51;98040.69;;;20.47;61.52
26699;BME280;14313;50.892;13.756;2022-10-31T15:40:19;98042.38;;;20.41;62.04
26699;BME280;14313;50.892;13.756;2022-10-31T15:42:55;98034.06;;;20.23;62.26
26699;BME280;14313;50.892;13.756;2022-10-31T15:45:23;98040.66;;;19.94;62.85
26699;BME280;14313;50.892;13.756;2022-10-31T15:48:00;98032.19;;;19.78;64.82
26699;BME280;14313;50.892;13.756;2022-10-31T15:50:32;98037.94;;;19.75;65.38
26699;BME280;14313;50.892;13.756;2022-10-31T15:53:01;98028.28;;;19.74;64.62
26699;BME280;14313;50.892;13.756;2022-10-31T15:55:29;98028.63;;;19.57;64.44
26699;BME280;14313;50.892;13.756;2022-10-31T15:58:01;98024.34;;;19.63;63.92
26699;BME280;14313;50.892;13.756;2022-10-31T16:00:33;98021.38;;;19.45;63.87
26699;BME280;14313;50.892;13.756;2022-10-31T16:05:46;98013.44;;;19.24;63.78
26699;BME280;14313;50.892;13.756;2022-10-31T16:08:35;98018.81;;;19.24;63.39
26699;BME280;14313;50.892;13.756;2022-10-31T16:13:34;98018.25;;;18.87;65.09
26699;BME280;14313;50.892;13.756;2022-10-31T16:16:03;98023.13;;;18.77;65.26
26699;BME280;14313;50.892;13.756;2022-10-31T16:18:35;98013.19;;;18.64;67.44
26699;BME280;14313;50.892;13.756;2022-10-31T16:21:02;98010.59;;;18.50;68.07
26699;BME280;14313;50.892;13.756;2022-10-31T16:23:28;98014.22;;;18.42;68.76
26699;BME280;14313;50.892;13.756;2022-10-31T16:25:54;98014.28;;;18.49;67.78
26699;BME280;14313;50.892;13.756;2022-10-31T16:28:22;98014.91;;;18.51;66.03
26699;BME280;14313;50.892;13.756;2022-10-31T16:30:56;98015.75;;;18.51;65.61
26699;BME280;14313;50.892;13.756;2022-10-31T16:33:31;98019.38;;;18.44;65.40
26699;BME280;14313;50.892;13.756;2022-10-31T16:35:59;98018.56;;;18.15;66.40
26699;BME280;14313;50.892;13.756;2022-10-31T16:38:26;98022.53;;;18.26;66.03
26699;BME280;14313;50.892;13.756;2022-10-31T16:40:52;98023.69;;;18.17;66.55
26699;BME280;14313;50.892;13.756;2022-10-31T16:43:19;98026.81;;;18.20;66.22
26699;BME280;14313;50.892;13.756;2022-10-31T16:45:47;98015.66;;;18.17;66.16
26699;BME280;14313;50.892;13.756;2022-10-31T16:48:16;98018.25;;;18.04;66.64
26699;BME280;14313;50.892;13.756;2022-10-31T16:50:44;98011.81;;;18.19;66.31
26699;BME280;14313;50.892;13.756;2022-10-31T16:53:12;98010.16;;;18.18;66.10
26699;BME280;14313;50.892;13.756;2022-10-31T16:55:45;98015.31;;;18.20;66.29
26699;BME280;14313;50.892;13.756;2022-10-31T16:58:18;98016.25;;;18.12;66.18
26699;BME280;14313;50.892;13.756;2022-10-31T17:00:44;98014.22;;;18.14;66.04
26699;BME280;14313;50.892;13.756;2022-10-31T17:03:10;98015.94;;;18.01;66.49
26699;BME280;14313;50.892;13.756;2022-10-31T17:05:35;98015.31;;;17.99;66.54
26699;BME280;14313;50.892;13.756;2022-10-31T17:08:02;98012.97;;;17.89;66.62
26699;BME280;14313;50.892;13.756;2022-10-31T17:10:28;98008.34;;;17.76;66.98
26699;BME280;14313;50.892;13.756;2022-10-31T17:12:54;98014.38;;;17.85;66.58
26699;BME280;14313;50.892;13.756;2022-10-31T17:15:23;98004.59;;;17.71;66.54
26699;BME280;14313;50.892;13.756;2022-10-31T17:17:49;97997.72;;;17.62;67.18
26699;BME280;14313;50.892;13.756;2022-10-31T17:20:25;98005.63;;;17.55;67.61
26699;BME280;14313;50.892;13.756;2022-10-31T17:22:51;97993.41;;;17.61;67.60
26699;BME280;14313;50.892;13.756;2022-10-31T17:25:20;98001.34;;;17.54;68.55
26699;BME280;14313;50.892;13.756;2022-10-31T17:27:47;97995.19;;;17.39;69.13
26699;BME280;14313;50.892;13.756;2022-10-31T17:30:14;97994.81;;;17.42;69.65
26699;BME280;14313;50.892;13.756;2022-10-31T17:32:40;97991.06;;;17.36;69.96
26699;BME280;14313;50.892;13.756;2022-10-31T17:35:10;97986.22;;;17.25;70.34
26699;BME280;14313;50.892;13.756;2022-10-31T17:37:37;97992.09;;;17.35;69.37
26699;BME280;14313;50.892;13.756;2022-10-31T17:40:02;97989.50;;;17.42;69.07
26699;BME280;14313;50.892;13.756;2022-10-31T17:42:28;97986.69;;;17.50;68.47
26699;BME280;14313;50.892;13.756;2022-10-31T17:44:54;97994.38;;;17.38;68.24
26699;BME280;14313;50.892;13.756;2022-10-31T17:47:19;97984.16;;;17.42;68.05
26699;BME280;14313;50.892;13.756;2022-10-31T17:49:44;97976.81;;;17.44;68.36
26699;BME280;14313;50.892;13.756;2022-10-31T17:52:10;97978.91;;;17.48;68.05
26699;BME280;14313;50.892;13.756;2022-10-31T17:54:35;97975.97;;;17.43;67.55
26699;BME280;14313;50.892;13.756;2022-10-31T17:57:01;97971.53;;;17.51;67.70
26699;BME280;14313;50.892;13.756;2022-10-31T17:59:27;97973.38;;;17.50;67.81
26699;BME280;14313;50.892;13.756;2022-10-31T18:01:54;97971.88;;;17.26;68.96
26699;BME280;14313;50.892;13.756;2022-10-31T18:04:20;97976.44;;;17.11;70.34
26699;BME280;14313;50.892;13.756;2022-10-31T18:06:45;97978.97;;;17.19;69.86
26699;BME280;14313;50.892;13.756;2022-10-31T18:09:14;97972.91;;;17.25;69.48
26699;BME280;14313;50.892;13.756;2022-10-31T18:11:40;97979.31;;;17.31;69.09
26699;BME280;14313;50.892;13.756;2022-10-31T18:14:06;97974.81;;;17.31;69.04
26699;BME280;14313;50.892;13.756;2022-10-31T18:16:31;97977.78;;;17.22;69.57
26699;BME280;14313;50.892;13.756;2022-10-31T18:18:57;97975.38;;;17.27;69.10
26699;BME280;14313;50.892;13.756;2022-10-31T18:21:24;97978.94;;;17.34;68.66
26699;BME280;14313;50.892;13.756;2022-10-31T18:23:54;97971.19;;;17.18;69.07
26699;BME280;14313;50.892;13.756;2022-10-31T18:26:20;97978.28;;;17.11;69.44
26699;BME280;14313;50.892;13.756;2022-10-31T18:28:45;97966.44;;;17.13;69.50
26699;BME280;14313;50.892;13.756;2022-10-31T18:31:10;97970.84;;;17.06;70.40
26699;BME280;14313;50.892;13.756;2022-10-31T18:33:36;97964.97;;;16.96;71.11
26699;BME280;14313;50.892;13.756;2022-10-31T18:36:05;97960.38;;;17.04;69.98
26699;BME280;14313;50.892;13.756;2022-10-31T18:38:32;97964.28;;;17.09;70.48
26699;BME280;14313;50.892;13.756;2022-10-31T18:40:58;97964.81;;;16.97;70.80
26699;BME280;14313;50.892;13.756;2022-10-31T18:43:23;97965.25;;;17.01;70.30
26699;BME280;14313;50.892;13.756;2022-10-31T18:45:49;97964.16;;;16.95;70.34
26699;BME280;14313;50.892;13.756;2022-10-31T18:48:15;97958.94;;;16.87;70.23
26699;BME280;14313;50.892;13.756;2022-10-31T18:50:41;97957.19;;;16.80;69.87
26699;BME280;14313;50.892;13.756;2022-10-31T18:53:07;97946.66;;;16.72;70.08